Wilsona Gardens, California
Current Conditions -  °F | °C
As of 12:58 AM on Monday 22 Dec 2014 (Local Time) from KEDW Reporting Station
Clear Clear  
Wind Chill: 36°   Ceiling: Unl
Heat Index: 40°   Visibility: 9mi
Dew Point: 40°   Wind: 6mph
Humidity: 100%   Direction: 330°NNW
Pressure: 30.16"   Gusts: NA
Location:  34.7192°N, 117.884°W
Report Text: KEDW 220858Z AUTO 33005KT 9SM CLR 05/05 A3016 RMK AO2 SLP214 T00470047 57008
Loading
Personal Weather Stations






























Interactive Weather Map New forecast layout! Learn more

10-Day Weather Forecast

Advertisements
Track Severe Weather on mobile